createdAt,value
2023-03-04T00:00:20.907Z,37.80
2023-03-04T00:03:09.059Z,40.90
2023-03-04T00:05:37.511Z,39.10
2023-03-04T00:08:05.156Z,45.40
2023-03-04T00:10:32.834Z,50.40
2023-03-04T00:13:00.359Z,50.70
2023-03-04T00:15:27.923Z,51.20
2023-03-04T00:17:55.980Z,39.70
2023-03-04T00:20:23.557Z,30.10
2023-03-04T00:22:51.075Z,47.60
2023-03-04T00:25:18.648Z,39.90
2023-03-04T00:27:46.227Z,50.80
2023-03-04T00:30:13.863Z,45.50
2023-03-04T00:32:41.634Z,41.00
2023-03-04T00:35:09.502Z,53.70
2023-03-04T00:37:37.037Z,41.90
2023-03-04T00:40:05.288Z,56.60
2023-03-04T00:42:32.906Z,36.60
2023-03-04T00:45:00.467Z,44.70
2023-03-04T00:47:28.059Z,43.30
2023-03-04T00:49:55.657Z,34.80
2023-03-04T00:52:23.222Z,41.70
2023-03-04T00:54:50.745Z,45.60
2023-03-04T00:57:18.459Z,44.50
2023-03-04T00:59:46.041Z,35.60
2023-03-04T01:02:13.839Z,38.90
2023-03-04T01:04:41.626Z,47.30
2023-03-04T01:07:09.475Z,31.40
2023-03-04T01:09:37.068Z,37.30
2023-03-04T01:12:04.718Z,43.50
2023-03-04T01:14:32.457Z,45.90
2023-03-04T01:17:00.058Z,45.90
2023-03-04T01:19:27.649Z,42.10
2023-03-04T01:21:55.194Z,37.90
2023-03-04T01:24:22.772Z,41.70
2023-03-04T01:26:50.309Z,47.70
2023-03-04T01:29:17.892Z,64.60
2023-03-04T01:31:45.402Z,43.50
2023-03-04T01:34:12.970Z,56.20
2023-03-04T01:36:40.545Z,49.00
2023-03-04T01:39:08.098Z,53.70
2023-03-04T01:41:35.719Z,40.60
2023-03-04T01:44:03.424Z,40.70
2023-03-04T01:46:31.997Z,49.90
2023-03-04T01:49:00.066Z,41.90
2023-03-04T01:51:27.756Z,45.10
2023-03-04T01:53:55.956Z,56.50
2023-03-04T01:56:38.030Z,37.90
2023-03-04T01:59:23.085Z,54.10
2023-03-04T02:01:56.111Z,34.40
2023-03-04T02:04:32.743Z,44.20
2023-03-04T02:07:01.927Z,48.90
2023-03-04T02:09:31.408Z,44.80
2023-03-04T02:11:59.974Z,28.10
2023-03-04T02:14:27.571Z,38.00
2023-03-04T02:16:55.205Z,51.60
2023-03-04T02:19:56.394Z,38.50
2023-03-04T02:22:24.074Z,46.90
2023-03-04T02:25:00.380Z,43.00
2023-03-04T02:27:28.053Z,39.00
2023-03-04T02:29:55.682Z,27.10
2023-03-04T02:32:23.369Z,42.20
2023-03-04T02:34:51.163Z,33.60
2023-03-04T02:37:20.045Z,47.50
2023-03-04T02:39:49.270Z,39.20
2023-03-04T02:42:17.196Z,36.80
2023-03-04T02:44:46.212Z,41.10
2023-03-04T02:47:16.166Z,42.80
2023-03-04T02:49:44.467Z,47.80
2023-03-04T02:52:19.317Z,44.70
2023-03-04T02:54:46.892Z,34.60
2023-03-04T02:57:15.407Z,47.70
2023-03-04T02:59:43.337Z,43.40
2023-03-04T03:02:10.972Z,43.10
2023-03-04T03:04:39.898Z,44.90
2023-03-04T03:07:07.963Z,41.20
2023-03-04T03:09:35.629Z,45.10
2023-03-04T03:12:03.298Z,44.20
2023-03-04T03:14:30.833Z,40.80
2023-03-04T03:16:58.473Z,41.30
2023-03-04T03:19:26.104Z,37.00
2023-03-04T03:21:53.671Z,41.00
2023-03-04T03:24:21.231Z,37.10
2023-03-04T03:26:48.853Z,48.70
2023-03-04T03:29:16.562Z,44.10
2023-03-04T03:31:44.108Z,51.40
2023-03-04T03:34:11.621Z,48.20
2023-03-04T03:36:39.175Z,43.90
2023-03-04T03:39:06.775Z,53.00
2023-03-04T03:41:34.356Z,51.00
2023-03-04T03:44:01.926Z,44.80
2023-03-04T03:46:29.576Z,51.70
2023-03-04T03:48:57.136Z,48.00
2023-03-04T03:51:24.740Z,47.30
2023-03-04T03:53:52.466Z,50.40
2023-03-04T03:56:20.000Z,54.60
2023-03-04T03:58:47.555Z,49.80
2023-03-04T04:01:15.129Z,46.20
2023-03-04T04:03:42.840Z,36.40
2023-03-04T04:06:10.380Z,47.20
2023-03-04T04:08:38.094Z,35.90
2023-03-04T04:11:05.654Z,39.70
2023-03-04T04:13:33.250Z,39.90
2023-03-04T04:16:00.875Z,54.40
2023-03-04T04:18:28.779Z,49.70
2023-03-04T04:20:56.364Z,49.50
2023-03-04T04:23:23.966Z,46.30
2023-03-04T04:25:51.514Z,54.90
2023-03-04T04:28:19.042Z,67.30
2023-03-04T04:30:46.635Z,66.50
2023-03-04T04:33:14.248Z,53.60
2023-03-04T04:35:42.110Z,62.10
2023-03-04T04:38:10.607Z,61.60
2023-03-04T04:40:38.232Z,64.80
2023-03-04T04:43:05.798Z,65.60
2023-03-04T04:45:34.416Z,67.90
2023-03-04T04:48:02.019Z,50.80
2023-03-04T04:50:32.514Z,48.20
2023-03-04T04:53:00.699Z,71.70
2023-03-04T04:55:28.288Z,61.40
2023-03-04T04:57:55.834Z,55.50
2023-03-04T05:00:23.333Z,54.00
2023-03-04T05:02:50.918Z,60.30
2023-03-04T05:05:18.687Z,66.10
2023-03-04T05:07:46.219Z,64.00
2023-03-04T05:10:13.786Z,48.30
2023-03-04T05:12:41.466Z,49.00
2023-03-04T05:15:09.324Z,46.40
2023-03-04T05:17:36.926Z,69.80
2023-03-04T05:20:04.816Z,63.00
2023-03-04T05:22:32.537Z,55.20
2023-03-04T05:25:00.124Z,54.30
2023-03-04T05:27:27.675Z,61.00
2023-03-04T05:29:55.173Z,53.40
2023-03-04T05:32:22.753Z,53.80
2023-03-04T05:34:50.251Z,53.30
2023-03-04T05:37:17.799Z,53.30
2023-03-04T05:39:45.407Z,53.60
2023-03-04T05:42:12.958Z,49.90
2023-03-04T05:44:40.506Z,54.00
2023-03-04T05:47:08.085Z,38.70
2023-03-04T05:49:35.651Z,40.60
2023-03-04T05:52:03.382Z,43.00
2023-03-04T05:54:30.892Z,37.90
2023-03-04T05:56:58.444Z,54.80
2023-03-04T05:59:26.109Z,50.90
2023-03-04T06:01:53.698Z,52.50
2023-03-04T06:04:21.309Z,44.40
2023-03-04T06:06:48.906Z,35.50
2023-03-04T06:09:16.484Z,56.60
2023-03-04T06:11:44.079Z,53.80
2023-03-04T06:14:11.613Z,49.20
2023-03-04T06:16:39.194Z,53.90
2023-03-04T06:19:06.727Z,40.30
2023-03-04T06:21:34.469Z,38.90
2023-03-04T06:24:01.994Z,48.20
2023-03-04T06:26:29.517Z,34.90
2023-03-04T06:28:57.139Z,42.10
2023-03-04T06:31:24.890Z,48.20
2023-03-04T06:33:52.473Z,38.40
2023-03-04T06:36:20.024Z,55.20
2023-03-04T06:38:47.595Z,47.00
2023-03-04T06:41:15.307Z,43.20
2023-03-04T06:43:43.044Z,54.50
2023-03-04T06:46:10.668Z,40.90
2023-03-04T06:48:38.316Z,47.70
2023-03-04T06:51:10.699Z,49.80
2023-03-04T06:53:39.344Z,44.60
2023-03-04T06:56:08.080Z,44.20
2023-03-04T06:58:36.298Z,39.70
2023-03-04T07:01:30.279Z,44.70
2023-03-04T07:03:58.395Z,43.00
2023-03-04T07:06:27.486Z,45.50
2023-03-04T07:08:55.776Z,42.60
2023-03-04T07:11:23.921Z,30.30
2023-03-04T07:13:52.003Z,49.90
2023-03-04T07:16:22.665Z,44.20
2023-03-04T07:18:50.321Z,44.10
2023-03-04T07:21:18.447Z,47.60
2023-03-04T07:23:47.338Z,41.80
2023-03-04T07:26:14.949Z,34.50
2023-03-04T07:28:43.146Z,43.10
2023-03-04T07:31:22.863Z,39.40
2023-03-04T07:33:51.953Z,34.50
2023-03-04T07:36:19.508Z,37.50
2023-03-04T07:38:49.077Z,42.00
2023-03-04T07:41:17.931Z,39.40
2023-03-04T07:43:45.607Z,41.10
2023-03-04T07:46:14.043Z,40.30
2023-03-04T07:48:43.145Z,40.40
2023-03-04T07:51:13.763Z,36.10
2023-03-04T07:53:43.385Z,34.50
2023-03-04T07:56:17.182Z,35.90
2023-03-04T07:58:45.317Z,40.40
2023-03-04T08:01:37.205Z,44.10
2023-03-04T08:04:06.969Z,35.30
2023-03-04T08:06:35.277Z,30.30
2023-03-04T08:09:06.393Z,38.80
2023-03-04T08:11:36.037Z,32.20
2023-03-04T08:14:03.795Z,35.50
2023-03-04T08:16:31.557Z,24.50
2023-03-04T08:19:04.215Z,29.00
2023-03-04T08:21:32.628Z,30.90
2023-03-04T08:24:01.726Z,21.50
2023-03-04T08:26:32.221Z,34.70
2023-03-04T08:31:30.785Z,29.30
2023-03-04T08:33:58.403Z,28.80
2023-03-04T08:36:26.066Z,24.30
2023-03-04T08:38:53.604Z,31.20
2023-03-04T08:41:21.170Z,28.10
2023-03-04T08:43:48.791Z,34.50
2023-03-04T08:46:16.346Z,33.50
2023-03-04T08:48:44.125Z,33.80
2023-03-04T08:51:14.464Z,33.90
2023-03-04T08:56:10.247Z,25.00
2023-03-04T08:58:38.161Z,28.40
2023-03-04T09:01:09.302Z,31.90
2023-03-04T09:03:37.308Z,33.50
2023-03-04T09:06:05.812Z,33.80
2023-03-04T09:08:34.364Z,29.80
2023-03-04T09:11:02.361Z,35.70
2023-03-04T09:13:31.072Z,29.20
2023-03-04T09:15:58.830Z,32.90
2023-03-04T09:18:27.122Z,27.50
2023-03-04T09:20:55.232Z,21.90
2023-03-04T09:23:23.068Z,25.50
2023-03-04T09:25:50.754Z,32.00
2023-03-04T09:28:19.045Z,19.00
2023-03-04T09:30:46.883Z,27.60
2023-03-04T09:33:14.770Z,21.10
2023-03-04T09:35:43.192Z,25.10
2023-03-04T09:38:10.873Z,29.00
2023-03-04T09:40:42.144Z,32.50
2023-03-04T09:43:39.833Z,33.10
2023-03-04T09:46:32.880Z,35.20
2023-03-04T09:49:00.582Z,29.50
2023-03-04T09:51:44.231Z,21.70
2023-03-04T09:55:04.817Z,33.10
2023-03-04T09:57:52.003Z,25.60
2023-03-04T10:00:19.575Z,34.20
2023-03-04T10:03:05.939Z,34.10
2023-03-04T10:05:39.280Z,35.70
2023-03-04T10:08:31.967Z,31.20
2023-03-04T10:11:01.678Z,36.50
2023-03-04T10:13:33.546Z,34.50
2023-03-04T10:16:03.664Z,39.30
2023-03-04T10:18:40.445Z,30.00
2023-03-04T10:21:13.892Z,23.60
2023-03-04T10:23:41.629Z,30.50
2023-03-04T10:26:18.044Z,24.50
2023-03-04T10:28:45.597Z,36.20
2023-03-04T10:31:35.261Z,33.70
2023-03-04T10:34:04.974Z,34.80
2023-03-04T10:36:39.913Z,31.20
2023-03-04T10:39:16.825Z,30.20
2023-03-04T10:41:53.793Z,23.40
2023-03-04T10:44:21.464Z,31.20
2023-03-04T10:46:50.144Z,30.40
2023-03-04T10:49:19.764Z,27.00
2023-03-04T10:52:33.767Z,27.30
2023-03-04T10:55:05.612Z,31.60
2023-03-04T10:57:37.403Z,31.90
2023-03-04T11:00:35.198Z,32.10
2023-03-04T11:03:21.242Z,28.80
2023-03-04T11:05:48.834Z,20.30
2023-03-04T11:08:22.395Z,23.40
2023-03-04T11:10:50.710Z,25.50
2023-03-04T11:13:21.603Z,32.70
2023-03-04T11:15:58.468Z,33.80
2023-03-04T11:18:57.676Z,31.50
2023-03-04T11:21:29.791Z,35.80
2023-03-04T11:24:03.158Z,29.80
2023-03-04T11:26:44.969Z,34.20
2023-03-04T11:30:03.413Z,47.90
2023-03-04T11:32:40.154Z,50.30
2023-03-04T11:35:34.769Z,35.90
2023-03-04T11:38:08.905Z,44.70
2023-03-04T11:40:44.336Z,34.50
2023-03-04T11:43:25.217Z,55.30
2023-03-04T11:45:58.699Z,40.30
2023-03-04T11:49:03.961Z,40.20
2023-03-04T11:52:08.925Z,45.30
2023-03-04T11:54:56.934Z,32.80
2023-03-04T11:57:41.912Z,54.30
2023-03-04T12:00:27.787Z,54.30
2023-03-04T12:03:04.192Z,44.70
2023-03-04T12:05:37.402Z,38.00
2023-03-04T12:08:33.194Z,39.90
2023-03-04T12:11:10.143Z,46.10
2023-03-04T12:13:58.752Z,38.10
2023-03-04T12:16:54.602Z,52.00
2023-03-04T12:19:31.807Z,46.60
2023-03-04T12:22:10.780Z,39.50
2023-03-04T12:25:03.156Z,43.40
2023-03-04T12:27:42.830Z,27.00
2023-03-04T12:30:47.475Z,31.70
2023-03-04T12:33:23.989Z,39.00
2023-03-04T12:38:42.604Z,37.50
2023-03-04T12:41:10.094Z,48.40
2023-03-04T12:44:01.270Z,29.80
2023-03-04T12:46:31.882Z,39.90
2023-03-04T12:49:02.081Z,48.30
2023-03-04T12:51:41.421Z,47.50
2023-03-04T12:54:21.343Z,37.20
2023-03-04T12:56:56.697Z,22.80
2023-03-04T12:59:26.701Z,33.20
2023-03-04T13:01:54.231Z,40.90
2023-03-04T13:04:27.433Z,47.80
2023-03-04T13:07:19.552Z,42.70
2023-03-04T13:09:58.734Z,52.10
2023-03-04T13:12:26.312Z,49.20
2023-03-04T13:15:05.815Z,33.30
2023-03-04T13:17:44.084Z,36.00
2023-03-04T13:20:17.576Z,48.10
2023-03-04T13:22:55.460Z,41.60
2023-03-04T13:25:30.666Z,46.10
2023-03-04T13:28:10.396Z,30.70
2023-03-04T13:30:37.907Z,24.90
2023-03-04T13:33:08.502Z,34.10
2023-03-04T13:35:49.020Z,31.00
2023-03-04T13:38:28.727Z,33.60
2023-03-04T13:41:05.223Z,40.70
2023-03-04T13:43:54.574Z,38.80
2023-03-04T13:46:25.273Z,36.90
2023-03-04T13:48:52.805Z,36.60
2023-03-04T13:51:29.776Z,36.70
2023-03-04T13:54:00.842Z,37.70
2023-03-04T13:56:54.363Z,46.10
2023-03-04T13:59:31.114Z,33.40
2023-03-04T14:02:22.313Z,39.40
2023-03-04T14:05:01.181Z,33.80
2023-03-04T14:07:31.801Z,37.00
2023-03-04T14:10:05.320Z,51.60
2023-03-04T14:12:40.288Z,43.90
2023-03-04T14:15:13.920Z,43.60
2023-03-04T14:17:49.497Z,43.00
2023-03-04T14:20:35.057Z,36.90
2023-03-04T14:23:33.234Z,40.30
2023-03-04T14:26:12.760Z,49.40
2023-03-04T14:28:48.912Z,47.10
2023-03-04T14:31:21.826Z,39.30
2023-03-04T14:33:52.135Z,31.00
2023-03-04T14:36:22.555Z,27.70
2023-03-04T14:38:54.616Z,34.80
2023-03-04T14:41:34.900Z,36.20
2023-03-04T14:44:14.665Z,31.10
2023-03-04T14:47:05.971Z,31.40
2023-03-04T14:49:36.869Z,23.60
2023-03-04T14:52:05.453Z,31.00
2023-03-04T14:54:37.674Z,33.80
2023-03-04T14:57:21.274Z,30.70
2023-03-04T14:59:48.933Z,32.60
2023-03-04T15:02:28.888Z,34.50
2023-03-04T15:04:58.713Z,40.00
2023-03-04T15:07:37.517Z,33.20
2023-03-04T15:10:11.212Z,25.00
2023-03-04T15:12:39.035Z,41.60
2023-03-04T15:15:36.585Z,26.60
2023-03-04T15:18:14.588Z,39.90
2023-03-04T15:20:42.341Z,28.40
2023-03-04T15:23:10.337Z,25.20
2023-03-04T15:25:38.179Z,31.20
2023-03-04T15:28:12.482Z,34.50
2023-03-04T15:30:40.149Z,31.70
2023-03-04T15:33:11.012Z,39.60
2023-03-04T15:35:39.509Z,36.40
2023-03-04T15:38:08.407Z,26.20
2023-03-04T15:40:39.247Z,33.00
2023-03-04T15:43:06.969Z,39.40
2023-03-04T15:45:36.984Z,25.20
2023-03-04T15:48:07.041Z,29.90
2023-03-04T15:51:01.770Z,33.30
2023-03-04T15:53:36.924Z,38.60
2023-03-04T15:56:08.171Z,26.40
2023-03-04T15:58:35.874Z,37.80
2023-03-04T16:01:03.888Z,39.70
2023-03-04T16:03:32.183Z,26.20
2023-03-04T16:05:59.891Z,34.20
2023-03-04T16:08:27.993Z,34.50
2023-03-04T16:10:55.598Z,33.20
2023-03-04T16:13:23.992Z,29.10
2023-03-04T16:15:52.011Z,33.50
2023-03-04T16:18:19.893Z,43.30
2023-03-04T16:20:49.553Z,31.50
2023-03-04T16:23:21.782Z,41.70
2023-03-04T16:25:52.572Z,34.10
2023-03-04T16:28:20.163Z,34.20
2023-03-04T16:30:48.704Z,37.40
2023-03-04T16:33:16.345Z,21.30
2023-03-04T16:35:45.367Z,26.10
2023-03-04T16:38:26.713Z,33.80
2023-03-04T16:40:55.635Z,29.90
2023-03-04T16:43:23.921Z,32.30
2023-03-04T16:45:51.793Z,36.20
2023-03-04T16:48:19.492Z,28.70
2023-03-04T16:50:47.138Z,39.10
2023-03-04T16:53:36.315Z,44.90
2023-03-04T16:56:12.796Z,21.70
2023-03-04T16:58:41.760Z,45.30
2023-03-04T17:01:24.384Z,38.90
2023-03-04T17:03:52.619Z,35.80
2023-03-04T17:06:21.196Z,31.30
2023-03-04T17:08:48.954Z,35.60
2023-03-04T17:11:19.251Z,39.20
2023-03-04T17:13:47.307Z,35.60
2023-03-04T17:16:15.479Z,39.10
2023-03-04T17:18:43.296Z,37.20
2023-03-04T17:21:18.418Z,44.60
2023-03-04T17:23:45.936Z,37.30
2023-03-04T17:26:13.559Z,37.00
2023-03-04T17:28:41.341Z,40.60
2023-03-04T17:31:10.547Z,36.40
2023-03-04T17:33:38.914Z,41.10
2023-03-04T17:36:08.062Z,34.60
2023-03-04T17:38:37.084Z,38.20
2023-03-04T17:41:06.469Z,42.10
2023-03-04T17:43:34.268Z,34.20
2023-03-04T17:46:04.388Z,35.70
2023-03-04T17:48:32.518Z,38.70
2023-03-04T17:51:00.247Z,45.90
2023-03-04T17:53:27.880Z,55.90
2023-03-04T17:55:57.594Z,54.50
2023-03-04T17:58:25.183Z,41.60
2023-03-04T18:00:55.083Z,49.80
2023-03-04T18:03:22.642Z,54.30
2023-03-04T18:05:50.201Z,51.10
2023-03-04T18:08:17.755Z,55.00
2023-03-04T18:10:45.397Z,49.30
2023-03-04T18:13:15.947Z,39.30
2023-03-04T18:15:43.683Z,35.10
2023-03-04T18:18:11.254Z,45.50
2023-03-04T18:20:38.762Z,48.10
2023-03-04T18:23:06.335Z,52.00
2023-03-04T18:25:33.942Z,47.20
2023-03-04T18:28:01.829Z,29.80
2023-03-04T18:30:29.557Z,34.00
2023-03-04T18:32:58.595Z,45.70
2023-03-04T18:35:26.224Z,45.90
2023-03-04T18:37:53.835Z,40.40
2023-03-04T18:40:21.404Z,35.10
2023-03-04T18:42:48.945Z,42.30
2023-03-04T18:45:17.910Z,43.40
2023-03-04T18:47:49.886Z,35.50
2023-03-04T18:50:18.090Z,40.20
2023-03-04T18:52:46.335Z,46.60
2023-03-04T18:55:14.230Z,40.20
2023-03-04T18:57:47.560Z,44.70
2023-03-04T19:00:18.444Z,62.10
2023-03-04T19:02:56.639Z,46.60
2023-03-04T19:05:27.733Z,37.60
2023-03-04T19:07:55.528Z,50.50
2023-03-04T19:10:23.276Z,42.90
2023-03-04T19:12:51.559Z,39.10
2023-03-04T19:15:19.295Z,35.30
2023-03-04T19:17:46.884Z,52.40
2023-03-04T19:20:15.622Z,42.20
2023-03-04T19:22:43.981Z,34.20
2023-03-04T19:25:12.049Z,47.70
2023-03-04T19:27:39.703Z,41.80
2023-03-04T19:30:08.012Z,45.10
2023-03-04T19:32:35.565Z,29.60
2023-03-04T19:35:03.220Z,30.90
2023-03-04T19:37:30.900Z,30.50
2023-03-04T19:39:58.440Z,38.40
2023-03-04T19:42:25.963Z,31.10
2023-03-04T19:44:53.608Z,32.70
2023-03-04T19:47:21.172Z,23.30
2023-03-04T19:49:48.752Z,29.90
2023-03-04T19:52:17.781Z,27.70
2023-03-04T19:54:45.385Z,28.30
2023-03-04T19:57:12.897Z,27.70
2023-03-04T19:59:40.466Z,29.20
2023-03-04T20:02:08.070Z,28.70
2023-03-04T20:04:35.707Z,23.90
2023-03-04T20:07:03.277Z,24.50
2023-03-04T20:09:30.891Z,32.30
2023-03-04T20:11:59.548Z,23.70
2023-03-04T20:14:28.028Z,22.50
2023-03-04T20:16:58.682Z,22.60
2023-03-04T20:19:26.510Z,24.60
2023-03-04T20:21:54.462Z,22.00
2023-03-04T20:24:23.535Z,23.70
2023-03-04T20:26:51.791Z,30.10
2023-03-04T20:29:19.434Z,24.20
2023-03-04T20:31:47.142Z,22.10
2023-03-04T20:34:15.134Z,23.60
2023-03-04T20:36:43.082Z,25.50
2023-03-04T20:39:26.963Z,27.50
2023-03-04T20:41:57.139Z,29.00
2023-03-04T20:44:25.101Z,25.50
2023-03-04T20:46:52.864Z,26.50
2023-03-04T20:49:28.204Z,29.80
2023-03-04T20:52:00.906Z,27.40
2023-03-04T20:54:33.363Z,33.90
2023-03-04T20:57:01.242Z,31.70
2023-03-04T20:59:28.796Z,26.80
2023-03-04T21:01:56.574Z,30.90
2023-03-04T21:04:24.381Z,27.80
2023-03-04T21:06:52.492Z,37.80
2023-03-04T21:09:23.011Z,34.40
2023-03-04T21:11:53.344Z,35.50
2023-03-04T21:14:29.922Z,35.10
2023-03-04T21:19:29.134Z,12.80
2023-03-04T21:21:57.873Z,8.80
2023-03-04T21:24:28.692Z,8.70
2023-03-04T21:26:56.872Z,10.10
2023-03-04T21:29:26.209Z,10.00
2023-03-04T21:31:57.513Z,8.50
2023-03-04T21:34:52.321Z,6.80
2023-03-04T21:37:21.067Z,8.60
2023-03-04T21:39:48.693Z,8.50
2023-03-04T21:42:16.511Z,7.90
2023-03-04T21:44:51.895Z,5.90
2023-03-04T21:47:21.026Z,6.80
2023-03-04T21:49:48.898Z,5.10
2023-03-04T21:52:19.007Z,8.80
2023-03-04T21:54:46.927Z,8.50
2023-03-04T21:57:14.650Z,7.40
2023-03-04T21:59:42.397Z,7.40
2023-03-04T22:02:15.868Z,10.90
2023-03-04T22:04:43.883Z,8.20
2023-03-04T22:07:12.006Z,8.30
2023-03-04T22:09:39.786Z,8.50
2023-03-04T22:12:07.492Z,9.30
2023-03-04T22:14:35.026Z,9.60
2023-03-04T22:17:02.738Z,12.90
2023-03-04T22:19:32.018Z,8.20
2023-03-04T22:21:59.636Z,9.80
2023-03-04T22:24:27.422Z,8.60
2023-03-04T22:26:54.970Z,9.50
2023-03-04T22:29:22.546Z,13.00
2023-03-04T22:31:50.138Z,9.40
2023-03-04T22:34:17.784Z,8.70
2023-03-04T22:36:46.837Z,11.40
2023-03-04T22:39:16.721Z,12.10
2023-03-04T22:41:44.314Z,7.90
2023-03-04T22:44:12.040Z,10.60
2023-03-04T22:46:39.727Z,9.30
2023-03-04T22:49:10.999Z,11.20
2023-03-04T22:51:40.633Z,9.30
2023-03-04T22:54:10.842Z,9.00
2023-03-04T22:56:38.343Z,10.40
2023-03-04T22:59:06.367Z,5.30
2023-03-04T23:01:33.931Z,11.50
2023-03-04T23:04:02.221Z,10.20
2023-03-04T23:06:30.049Z,9.70
2023-03-04T23:08:58.918Z,9.30
2023-03-04T23:11:32.405Z,9.80
2023-03-04T23:13:59.967Z,12.30
2023-03-04T23:16:27.563Z,8.60
2023-03-04T23:18:56.234Z,10.30
2023-03-04T23:21:25.723Z,7.10
2023-03-04T23:23:53.282Z,10.60
2023-03-04T23:26:29.963Z,11.60
2023-03-04T23:28:57.932Z,11.10
2023-03-04T23:31:25.662Z,11.90
2023-03-04T23:33:53.440Z,10.30
2023-03-04T23:36:20.986Z,13.30
2023-03-04T23:38:48.745Z,14.20
2023-03-04T23:41:22.621Z,9.00
2023-03-04T23:43:52.809Z,13.00
2023-03-04T23:46:20.856Z,12.10
2023-03-04T23:48:48.716Z,13.70
2023-03-04T23:51:21.968Z,13.60
2023-03-04T23:53:49.638Z,9.20
2023-03-04T23:56:20.314Z,10.80
2023-03-04T23:58:49.082Z,12.10
